Time;durP1;ratioP1;P1;durP2;ratioP2;P2;SDS_P1;SDS_P2;PMS_P1;PMS_P2;Temp;Humidity;BMP_temperature;BMP_pressure;BME280_temperature;BME280_humidity;BME280_pressure;Samples;Min_cycle;Max_cycle;Signal;HPM_P1;HPM_P2
2023/06/27 00:01:57;;;;;;;8.02;1.60;;;;;;;;;;5052995;28;20040;-79
2023/06/27 00:04:23;;;;;;;7.00;1.70;;;;;;;;;;5049783;28;20029;-77
2023/06/27 00:06:52;;;;;;;5.07;1.45;;;;;;;;;;5051497;28;20033;-79
2023/06/27 00:09:18;;;;;;;5.40;1.60;;;;;;;;;;5052197;28;20039;-79
2023/06/27 00:11:44;;;;;;;4.90;1.45;;;;;;;;;;5050330;28;20069;-80
2023/06/27 00:14:10;;;;;;;5.38;1.67;;;;;;;;;;5051810;28;20048;-79
2023/06/27 00:16:36;;;;;;;7.07;1.58;;;;;;;;;;5051686;28;20124;-78
2023/06/27 00:19:03;;;;;;;5.57;1.55;;;;;;;;;;5053517;28;20043;-78
2023/06/27 00:21:32;;;;;;;2.58;1.40;;;;;;;;;;5054114;28;20033;-79
2023/06/27 00:23:58;;;;;;;5.32;1.60;;;;;;;;;;5049904;28;20037;-78
2023/06/27 00:26:24;;;;;;;3.40;1.70;;;;;;;;;;5048196;28;20036;-77
2023/06/27 00:28:50;;;;;;;5.20;1.52;;;;;;;;;;5051414;28;20032;-79
2023/06/27 00:31:16;;;;;;;4.40;1.90;;;;;;;;;;5053267;28;20036;-78
2023/06/27 00:33:42;;;;;;;5.43;1.58;;;;;;;;;;5054253;28;20053;-80
2023/06/27 00:36:09;;;;;;;8.88;1.83;;;;;;;;;;5052841;28;20142;-79
2023/06/27 00:38:35;;;;;;;4.72;1.52;;;;;;;;;;5049866;28;20060;-78
2023/06/27 00:41:01;;;;;;;3.38;1.10;;;;;;;;;;5054608;28;20033;-79
2023/06/27 00:43:30;;;;;;;5.25;1.40;;;;;;;;;;5052170;28;20060;-78
2023/06/27 00:45:56;;;;;;;5.95;1.38;;;;;;;;;;5053301;28;20033;-79
2023/06/27 00:48:23;;;;;;;3.38;1.10;;;;;;;;;;5050817;28;20025;-77
2023/06/27 00:50:49;;;;;;;5.53;1.25;;;;;;;;;;5053881;28;20036;-80
2023/06/27 00:53:15;;;;;;;3.08;1.30;;;;;;;;;;5051972;28;20052;-80
2023/06/27 00:55:41;;;;;;;3.47;1.20;;;;;;;;;;5050302;28;20041;-80
2023/06/27 00:58:11;;;;;;;2.03;1.13;;;;;;;;;;5052582;28;20025;-78
2023/06/27 01:00:37;;;;;;;4.20;1.25;;;;;;;;;;5051515;28;20045;-81
2023/06/27 01:03:03;;;;;;;2.80;1.13;;;;;;;;;;5050271;28;20040;-79
2023/06/27 01:05:30;;;;;;;4.15;1.23;;;;;;;;;;5050913;28;20147;-79
2023/06/27 01:08:06;;;;;;;3.35;1.38;;;;;;;;;;5052759;28;20033;-80
2023/06/27 01:10:39;;;;;;;5.00;1.35;;;;;;;;;;5052906;28;20044;-79
2023/06/27 01:13:13;;;;;;;7.35;1.13;;;;;;;;;;5050995;28;20364;-80
2023/06/27 01:15:40;;;;;;;3.72;1.38;;;;;;;;;;5049912;28;20060;-78
2023/06/27 01:18:06;;;;;;;2.03;1.08;;;;;;;;;;5049585;28;20032;-79
2023/06/27 01:20:33;;;;;;;5.47;1.50;;;;;;;;;;5048416;28;20041;-79
2023/06/27 01:23:08;;;;;;;9.82;1.60;;;;;;;;;;5050882;28;20025;-79
2023/06/27 01:25:40;;;;;;;3.47;1.15;;;;;;;;;;5048935;28;20072;-80
2023/06/27 01:28:07;;;;;;;3.13;1.27;;;;;;;;;;5051234;28;20052;-80
2023/06/27 01:30:36;;;;;;;4.18;1.65;;;;;;;;;;5053544;28;20049;-80
2023/06/27 01:33:07;;;;;;;4.47;1.55;;;;;;;;;;5051503;28;20040;-80
2023/06/27 01:35:46;;;;;;;4.82;1.40;;;;;;;;;;5055044;28;20067;-79
2023/06/27 01:38:16;;;;;;;4.15;1.25;;;;;;;;;;5062327;28;20092;-81
2023/06/27 01:40:44;;;;;;;4.20;1.48;;;;;;;;;;5050441;28;20037;-81
2023/06/27 01:43:11;;;;;;;4.45;1.20;;;;;;;;;;5057142;28;20049;-81
2023/06/27 01:45:38;;;;;;;3.63;1.48;;;;;;;;;;5053704;28;20103;-80
2023/06/27 01:48:06;;;;;;;2.72;1.15;;;;;;;;;;5052429;28;20037;-81
2023/06/27 01:50:32;;;;;;;3.33;1.60;;;;;;;;;;5052639;28;20029;-80
2023/06/27 01:52:58;;;;;;;3.05;1.35;;;;;;;;;;5050823;28;20038;-79
2023/06/27 01:55:25;;;;;;;3.42;1.40;;;;;;;;;;5061572;28;20029;-80
2023/06/27 01:57:51;;;;;;;2.25;1.20;;;;;;;;;;5052287;28;20036;-79
2023/06/27 02:00:17;;;;;;;1.90;1.42;;;;;;;;;;5052188;28;20033;-80
2023/06/27 02:02:43;;;;;;;2.97;1.48;;;;;;;;;;5053102;28;20052;-80
2023/06/27 02:05:09;;;;;;;2.15;1.10;;;;;;;;;;5053964;28;20045;-79
2023/06/27 02:07:35;;;;;;;4.60;1.30;;;;;;;;;;5052024;28;20458;-80
2023/06/27 02:10:02;;;;;;;5.32;1.17;;;;;;;;;;5058090;28;20021;-80
2023/06/27 02:12:28;;;;;;;4.70;1.45;;;;;;;;;;5051917;28;20013;-79
2023/06/27 02:14:54;;;;;;;5.65;1.25;;;;;;;;;;5053410;28;20033;-80
2023/06/27 02:17:20;;;;;;;7.18;1.42;;;;;;;;;;5054029;28;20042;-81
2023/06/27 02:19:45;;;;;;;4.60;1.60;;;;;;;;;;5055953;28;20060;-78
2023/06/27 02:22:11;;;;;;;7.05;1.73;;;;;;;;;;5057401;28;20033;-80
2023/06/27 02:24:37;;;;;;;5.53;1.50;;;;;;;;;;5057439;28;20029;-80
2023/06/27 02:27:03;;;;;;;3.88;1.60;;;;;;;;;;5054782;28;20025;-81
2023/06/27 02:29:30;;;;;;;5.50;1.63;;;;;;;;;;5056613;28;20354;-81
2023/06/27 02:31:56;;;;;;;7.15;1.98;;;;;;;;;;5055375;28;20079;-80
2023/06/27 02:34:25;;;;;;;4.53;1.25;;;;;;;;;;5061095;28;20033;-80
2023/06/27 02:36:51;;;;;;;6.43;1.95;;;;;;;;;;5074109;28;20682;-80
2023/06/27 02:39:17;;;;;;;7.70;1.50;;;;;;;;;;5056610;28;20041;-81
2023/06/27 02:41:43;;;;;;;3.70;1.65;;;;;;;;;;5057022;28;20067;-79
2023/06/27 02:44:11;;;;;;;4.30;1.70;;;;;;;;;;5056266;28;20033;-81
2023/06/27 02:46:37;;;;;;;2.17;1.13;;;;;;;;;;5056722;28;20101;-80
2023/06/27 02:49:03;;;;;;;3.35;1.42;;;;;;;;;;5057086;28;20040;-81
2023/06/27 02:51:29;;;;;;;7.28;1.70;;;;;;;;;;5056192;28;20304;-79
2023/06/27 02:53:56;;;;;;;3.67;1.67;;;;;;;;;;5054787;28;20033;-81
2023/06/27 02:56:22;;;;;;;3.53;1.45;;;;;;;;;;5056017;28;20044;-79
2023/06/27 02:58:48;;;;;;;4.28;1.40;;;;;;;;;;5056372;28;20029;-80
2023/06/27 03:01:14;;;;;;;4.55;1.60;;;;;;;;;;5065933;28;20037;-78
2023/06/27 03:03:42;;;;;;;4.07;1.50;;;;;;;;;;5056877;28;20099;-81
2023/06/27 03:06:08;;;;;;;5.43;1.65;;;;;;;;;;5055082;28;20039;-81
2023/06/27 03:08:40;;;;;;;2.85;1.27;;;;;;;;;;5058858;28;20049;-81
2023/06/27 03:11:06;;;;;;;5.43;1.55;;;;;;;;;;5054980;28;20022;-81
2023/06/27 03:13:32;;;;;;;3.35;1.70;;;;;;;;;;5057839;28;20033;-79
2023/06/27 03:15:58;;;;;;;6.22;1.73;;;;;;;;;;5055467;28;20108;-80
2023/06/27 03:18:27;;;;;;;6.47;1.50;;;;;;;;;;5056409;28;20021;-81
2023/06/27 03:20:55;;;;;;;5.65;1.67;;;;;;;;;;5056916;28;20108;-81
2023/06/27 03:23:21;;;;;;;5.35;1.50;;;;;;;;;;5053697;28;20030;-79
2023/06/27 03:25:47;;;;;;;5.57;2.00;;;;;;;;;;5056046;28;20040;-79
2023/06/27 03:28:13;;;;;;;6.30;1.50;;;;;;;;;;5064975;28;20048;-81
2023/06/27 03:30:43;;;;;;;6.13;2.10;;;;;;;;;;5054676;28;20025;-79
2023/06/27 03:33:09;;;;;;;3.92;2.28;;;;;;;;;;5054244;28;20029;-81
2023/06/27 03:35:35;;;;;;;4.47;1.88;;;;;;;;;;5055510;28;20040;-80
2023/06/27 03:38:02;;;;;;;3.95;1.90;;;;;;;;;;5064552;28;20037;-80
2023/06/27 03:40:28;;;;;;;6.80;1.80;;;;;;;;;;5054949;28;20035;-80
2023/06/27 03:42:56;;;;;;;6.15;1.90;;;;;;;;;;5055994;28;20081;-80
2023/06/27 03:45:22;;;;;;;5.50;1.77;;;;;;;;;;5054522;28;20024;-80
2023/06/27 03:47:48;;;;;;;8.05;2.00;;;;;;;;;;5055214;28;20153;-79
2023/06/27 03:50:14;;;;;;;3.70;1.70;;;;;;;;;;5055980;28;20880;-81
2023/06/27 03:52:40;;;;;;;6.18;2.58;;;;;;;;;;5058174;28;20508;-78
2023/06/27 03:55:07;;;;;;;5.22;2.22;;;;;;;;;;5053417;28;20044;-80
2023/06/27 03:57:35;;;;;;;8.30;2.33;;;;;;;;;;5052432;28;20036;-81
2023/06/27 04:00:02;;;;;;;6.88;2.13;;;;;;;;;;5055018;28;20033;-79
2023/06/27 04:02:28;;;;;;;8.57;2.35;;;;;;;;;;5055271;28;20036;-79
2023/06/27 04:04:54;;;;;;;8.25;1.85;;;;;;;;;;5053746;28;20040;-79
2023/06/27 04:07:20;;;;;;;5.75;1.90;;;;;;;;;;5058695;28;20025;-80
2023/06/27 04:09:46;;;;;;;6.30;2.10;;;;;;;;;;5054350;28;20060;-80
2023/06/27 04:12:12;;;;;;;8.32;2.28;;;;;;;;;;5054991;28;20028;-82
2023/06/27 04:14:38;;;;;;;7.70;1.90;;;;;;;;;;5055143;28;20036;-79
2023/06/27 04:17:04;;;;;;;5.50;2.38;;;;;;;;;;5052453;28;20627;-80
2023/06/27 04:19:33;;;;;;;7.82;2.22;;;;;;;;;;5051256;28;21605;-81
2023/06/27 04:21:59;;;;;;;3.25;1.92;;;;;;;;;;5050360;28;20033;-80
2023/06/27 04:24:25;;;;;;;7.45;2.30;;;;;;;;;;5050046;28;20072;-80
2023/06/27 04:26:51;;;;;;;5.15;2.42;;;;;;;;;;5056250;28;20029;-80
2023/06/27 04:29:17;;;;;;;6.55;2.55;;;;;;;;;;5055000;28;20028;-80
2023/06/27 04:31:43;;;;;;;4.82;2.60;;;;;;;;;;5051281;28;20021;-79
2023/06/27 04:34:09;;;;;;;6.30;2.35;;;;;;;;;;5054189;28;20052;-80
2023/06/27 04:36:40;;;;;;;4.35;2.00;;;;;;;;;;5050874;28;20071;-82
2023/06/27 04:39:06;;;;;;;9.97;2.73;;;;;;;;;;5055104;28;20025;-81
2023/06/27 04:41:32;;;;;;;6.38;2.25;;;;;;;;;;5050007;28;20338;-81
2023/06/27 04:43:59;;;;;;;6.15;3.17;;;;;;;;;;5049904;28;21672;-81
2023/06/27 04:46:28;;;;;;;7.97;2.45;;;;;;;;;;5051856;28;20017;-81
2023/06/27 04:48:59;;;;;;;9.27;2.60;;;;;;;;;;5049226;28;20028;-79
2023/06/27 04:51:29;;;;;;;7.65;3.00;;;;;;;;;;5050734;28;20041;-80
2023/06/27 04:53:55;;;;;;;6.15;2.83;;;;;;;;;;5053815;28;20056;-80
2023/06/27 04:56:21;;;;;;;5.80;2.10;;;;;;;;;;5047785;28;20045;-80
2023/06/27 04:58:47;;;;;;;12.10;2.95;;;;;;;;;;5052836;28;20044;-80
2023/06/27 05:01:13;;;;;;;6.57;2.50;;;;;;;;;;5049334;28;20040;-81
2023/06/27 05:03:41;;;;;;;8.10;2.88;;;;;;;;;;5050396;28;20029;-80
2023/06/27 05:06:07;;;;;;;9.85;3.20;;;;;;;;;;5051383;28;20052;-81
2023/06/27 05:08:33;;;;;;;7.15;2.55;;;;;;;;;;5050289;28;20033;-81
2023/06/27 05:10:59;;;;;;;8.13;2.40;;;;;;;;;;5049936;28;20028;-81
2023/06/27 05:13:25;;;;;;;9.18;2.47;;;;;;;;;;5049468;28;20048;-80
2023/06/27 05:15:51;;;;;;;9.45;2.60;;;;;;;;;;5050586;28;20033;-80
2023/06/27 05:18:17;;;;;;;10.68;3.05;;;;;;;;;;5050378;28;20025;-80
2023/06/27 05:20:44;;;;;;;11.80;3.05;;;;;;;;;;5047604;28;20020;-80
2023/06/27 05:23:10;;;;;;;16.65;3.28;;;;;;;;;;5048551;28;20036;-80
2023/06/27 05:25:36;;;;;;;14.32;3.72;;;;;;;;;;5051423;28;20568;-80
2023/06/27 05:28:02;;;;;;;6.55;2.63;;;;;;;;;;5048660;28;20039;-81
2023/06/27 05:30:29;;;;;;;6.90;2.65;;;;;;;;;;5049516;28;20045;-80
2023/06/27 05:32:55;;;;;;;6.45;2.60;;;;;;;;;;5050221;28;20052;-80
2023/06/27 05:35:21;;;;;;;9.32;2.63;;;;;;;;;;5050090;28;20032;-80
2023/06/27 05:37:47;;;;;;;12.70;3.22;;;;;;;;;;5046570;28;20129;-81
2023/06/27 05:40:13;;;;;;;12.80;3.10;;;;;;;;;;5052579;28;20058;-81
2023/06/27 05:42:41;;;;;;;10.60;2.65;;;;;;;;;;5052785;28;20037;-80
2023/06/27 05:45:07;;;;;;;12.07;2.97;;;;;;;;;;5050510;28;20055;-80
2023/06/27 05:47:33;;;;;;;10.80;3.53;;;;;;;;;;5051771;28;20063;-80
2023/06/27 05:50:02;;;;;;;11.57;3.40;;;;;;;;;;5049521;28;20049;-79
2023/06/27 05:52:31;;;;;;;12.30;3.10;;;;;;;;;;5053995;28;20035;-81
2023/06/27 05:54:57;;;;;;;9.23;2.90;;;;;;;;;;5051700;28;20396;-81
2023/06/27 05:57:23;;;;;;;13.73;3.53;;;;;;;;;;5052004;28;20365;-80
2023/06/27 05:59:50;;;;;;;11.80;2.45;;;;;;;;;;5054552;28;20096;-80
2023/06/27 06:02:16;;;;;;;11.52;3.20;;;;;;;;;;5056825;28;20033;-78
2023/06/27 06:04:42;;;;;;;8.80;3.03;;;;;;;;;;5054710;28;20044;-80
2023/06/27 06:07:08;;;;;;;11.15;2.72;;;;;;;;;;5053528;28;20096;-80
2023/06/27 06:09:34;;;;;;;8.90;2.60;;;;;;;;;;5054308;28;20038;-80
2023/06/27 06:12:00;;;;;;;9.13;2.50;;;;;;;;;;5054942;28;20047;-80
2023/06/27 06:14:26;;;;;;;7.72;2.33;;;;;;;;;;5053675;28;20044;-80
2023/06/27 06:16:52;;;;;;;11.18;2.78;;;;;;;;;;5050246;28;20058;-80
2023/06/27 06:19:18;;;;;;;17.20;3.70;;;;;;;;;;5051315;28;20068;-79
2023/06/27 06:21:47;;;;;;;9.80;2.88;;;;;;;;;;5050968;28;20040;-81
2023/06/27 06:24:14;;;;;;;17.52;3.45;;;;;;;;;;5052637;28;20041;-79
2023/06/27 06:26:40;;;;;;;13.05;2.83;;;;;;;;;;5052608;28;20040;-80
2023/06/27 06:29:12;;;;;;;15.93;4.22;;;;;;;;;;5061962;28;20033;-81
2023/06/27 06:31:38;;;;;;;7.00;2.78;;;;;;;;;;5065333;28;20029;-80
2023/06/27 06:34:04;;;;;;;10.27;3.15;;;;;;;;;;5055236;28;20039;-80
2023/06/27 06:36:31;;;;;;;11.93;2.40;;;;;;;;;;5051474;28;20037;-79
2023/06/27 06:38:58;;;;;;;11.68;2.72;;;;;;;;;;5061504;28;20125;-80
2023/06/27 06:41:24;;;;;;;13.43;2.53;;;;;;;;;;5060302;28;20017;-79
2023/06/27 06:43:50;;;;;;;9.45;2.85;;;;;;;;;;5061086;28;20101;-81
2023/06/27 06:46:18;;;;;;;8.32;2.85;;;;;;;;;;5071697;28;20032;-79
2023/06/27 06:48:44;;;;;;;10.43;2.95;;;;;;;;;;5060898;28;20021;-79
2023/06/27 06:51:13;;;;;;;8.68;2.67;;;;;;;;;;5059096;28;20017;-80
2023/06/27 06:53:39;;;;;;;13.45;2.95;;;;;;;;;;5071826;28;20034;-79
2023/06/27 06:56:05;;;;;;;15.63;3.25;;;;;;;;;;5065805;28;20048;-81
2023/06/27 06:58:31;;;;;;;15.80;2.78;;;;;;;;;;5059249;28;20022;-80
2023/06/27 07:00:57;;;;;;;17.52;3.70;;;;;;;;;;5062582;28;20024;-80
2023/06/27 07:03:25;;;;;;;17.52;3.15;;;;;;;;;;5056920;28;20045;-80
2023/06/27 07:05:51;;;;;;;12.70;2.22;;;;;;;;;;5060929;28;20013;-79
2023/06/27 07:08:17;;;;;;;12.93;3.50;;;;;;;;;;5058909;28;20029;-80
2023/06/27 07:10:43;;;;;;;11.88;3.38;;;;;;;;;;5060106;28;20029;-80
2023/06/27 07:13:09;;;;;;;10.38;2.42;;;;;;;;;;5060853;28;20041;-80
2023/06/27 07:15:35;;;;;;;10.25;3.05;;;;;;;;;;5060029;28;20037;-82
2023/06/27 07:18:01;;;;;;;12.15;2.72;;;;;;;;;;5059515;28;20697;-81
2023/06/27 07:20:29;;;;;;;12.63;3.25;;;;;;;;;;5059388;28;20021;-79
2023/06/27 07:22:55;;;;;;;15.68;3.35;;;;;;;;;;5060006;28;20029;-80
2023/06/27 07:25:21;;;;;;;16.88;2.60;;;;;;;;;;5070519;28;20124;-81
2023/06/27 07:27:49;;;;;;;15.65;3.45;;;;;;;;;;5060105;28;20025;-81
2023/06/27 07:30:16;;;;;;;10.43;2.45;;;;;;;;;;5059098;28;20089;-81
2023/06/27 07:32:42;;;;;;;10.48;3.47;;;;;;;;;;5061803;28;20067;-79
2023/06/27 07:35:08;;;;;;;6.72;2.38;;;;;;;;;;5071008;28;20014;-81
2023/06/27 07:37:34;;;;;;;13.85;2.88;;;;;;;;;;5071541;28;20029;-80
2023/06/27 07:40:02;;;;;;;14.65;2.65;;;;;;;;;;5058983;28;20037;-77
2023/06/27 07:42:30;;;;;;;10.57;2.92;;;;;;;;;;5056698;28;20017;-80
2023/06/27 07:44:59;;;;;;;10.18;2.75;;;;;;;;;;5055029;28;20009;-80
2023/06/27 07:47:27;;;;;;;19.83;3.38;;;;;;;;;;5058940;28;20009;-80
2023/06/27 07:49:54;;;;;;;10.60;2.25;;;;;;;;;;5070913;28;20670;-80
2023/06/27 07:52:20;;;;;;;10.57;3.25;;;;;;;;;;5065286;28;20106;-80
2023/06/27 07:54:46;;;;;;;12.95;3.08;;;;;;;;;;5059562;28;20049;-80
2023/06/27 07:57:14;;;;;;;9.93;2.75;;;;;;;;;;5069695;28;20041;-80
2023/06/27 07:59:40;;;;;;;17.65;2.85;;;;;;;;;;5062488;28;20037;-78
2023/06/27 08:02:07;;;;;;;14.13;2.42;;;;;;;;;;5058318;28;20063;-79
2023/06/27 08:04:33;;;;;;;11.57;2.58;;;;;;;;;;5073443;28;20260;-81
2023/06/27 08:06:59;;;;;;;12.95;2.60;;;;;;;;;;5060478;28;20032;-79
2023/06/27 08:09:25;;;;;;;9.50;2.13;;;;;;;;;;5068895;28;20025;-79
2023/06/27 08:11:51;;;;;;;12.55;2.88;;;;;;;;;;5068480;28;20021;-80
2023/06/27 08:14:17;;;;;;;11.40;2.40;;;;;;;;;;5058279;28;20029;-81
2023/06/27 08:16:43;;;;;;;9.40;2.70;;;;;;;;;;5057799;28;20025;-80
2023/06/27 08:19:09;;;;;;;10.75;2.70;;;;;;;;;;5069397;28;20025;-81
2023/06/27 08:21:35;;;;;;;9.98;1.90;;;;;;;;;;5057893;28;20145;-80
2023/06/27 08:24:01;;;;;;;6.18;2.08;;;;;;;;;;5058053;28;20051;-80
2023/06/27 08:26:27;;;;;;;11.02;2.13;;;;;;;;;;5057727;28;20083;-78
2023/06/27 08:28:53;;;;;;;10.73;2.38;;;;;;;;;;5059184;28;20021;-80
2023/06/27 08:31:19;;;;;;;8.85;2.97;;;;;;;;;;5059167;28;20021;-81
2023/06/27 08:33:45;;;;;;;14.70;2.92;;;;;;;;;;5069660;28;20055;-80
2023/06/27 08:36:11;;;;;;;7.90;2.30;;;;;;;;;;5056189;28;20022;-78
2023/06/27 08:38:37;;;;;;;10.48;2.83;;;;;;;;;;5075802;28;20063;-80
2023/06/27 08:41:03;;;;;;;9.18;1.85;;;;;;;;;;5060694;28;20009;-80
2023/06/27 08:43:30;;;;;;;10.15;2.55;;;;;;;;;;5069890;28;20037;-80
2023/06/27 08:45:57;;;;;;;7.00;2.42;;;;;;;;;;5058802;28;20033;-81
2023/06/27 08:48:25;;;;;;;13.68;2.40;;;;;;;;;;5058550;28;20055;-79
2023/06/27 08:50:54;;;;;;;9.13;2.15;;;;;;;;;;5069520;28;20048;-79
2023/06/27 08:53:22;;;;;;;10.07;1.88;;;;;;;;;;5152440;22;20041;-80
2023/06/27 08:55:58;;;;;;;13.32;2.17;;;;;;;;;;5074760;28;20180;-80
2023/06/27 08:58:28;;;;;;;17.10;2.10;;;;;;;;;;5083548;28;20071;-80
2023/06/27 09:00:54;;;;;;;8.68;1.85;;;;;;;;;;5064207;28;20021;-78
2023/06/27 09:03:21;;;;;;;7.18;1.77;;;;;;;;;;5067556;28;20035;-80
2023/06/27 09:05:48;;;;;;;7.38;1.65;;;;;;;;;;5067174;28;20035;-78
2023/06/27 09:08:14;;;;;;;9.07;2.70;;;;;;;;;;5066191;28;20019;-78
2023/06/27 09:10:40;;;;;;;11.77;2.00;;;;;;;;;;5084603;28;20017;-80
2023/06/27 09:13:06;;;;;;;8.07;1.48;;;;;;;;;;5070303;28;20021;-80
2023/06/27 09:15:32;;;;;;;5.00;1.02;;;;;;;;;;5069737;28;20028;-81
2023/06/27 09:17:59;;;;;;;7.05;1.45;;;;;;;;;;5065976;28;20027;-80
2023/06/27 09:20:25;;;;;;;6.47;1.30;;;;;;;;;;5081495;28;20062;-79
2023/06/27 09:22:52;;;;;;;9.88;2.13;;;;;;;;;;5085554;28;20101;-80
2023/06/27 09:25:21;;;;;;;4.15;1.25;;;;;;;;;;5066834;28;20009;-79
2023/06/27 09:27:48;;;;;;;7.55;2.10;;;;;;;;;;5066420;28;20017;-79
2023/06/27 09:30:14;;;;;;;4.82;1.52;;;;;;;;;;5082780;28;20024;-79
2023/06/27 09:33:00;;;;;;;8.88;1.95;;;;;;;;;;5066646;28;20031;-80
2023/06/27 09:35:27;;;;;;;7.47;2.17;;;;;;;;;;5069807;28;20094;-80
2023/06/27 09:37:55;;;;;;;8.70;1.70;;;;;;;;;;5083258;28;20013;-79
2023/06/27 09:40:24;;;;;;;10.98;2.42;;;;;;;;;;5085252;28;20013;-79
2023/06/27 09:42:50;;;;;;;8.02;1.90;;;;;;;;;;5066716;28;20461;-81
2023/06/27 09:45:17;;;;;;;4.45;1.50;;;;;;;;;;5074152;28;20021;-81
2023/06/27 09:47:43;;;;;;;7.15;1.45;;;;;;;;;;5070922;28;20060;-79
2023/06/27 09:50:09;;;;;;;6.95;1.80;;;;;;;;;;5084707;28;20039;-79
2023/06/27 09:52:35;;;;;;;8.65;1.70;;;;;;;;;;5082357;28;20060;-80
2023/06/27 09:55:01;;;;;;;8.77;2.15;;;;;;;;;;5083384;28;20020;-79
2023/06/27 09:57:30;;;;;;;6.35;1.63;;;;;;;;;;5069030;28;20025;-79
2023/06/27 09:59:59;;;;;;;7.18;1.85;;;;;;;;;;5066507;28;20090;-78
2023/06/27 10:02:31;;;;;;;8.80;2.13;;;;;;;;;;5069301;28;20062;-80
2023/06/27 10:04:58;;;;;;;5.30;1.50;;;;;;;;;;5080130;28;20041;-80
2023/06/27 10:07:24;;;;;;;7.57;1.65;;;;;;;;;;5066139;28;20033;-80
2023/06/27 10:09:50;;;;;;;9.13;1.65;;;;;;;;;;5068162;28;20052;-78
2023/06/27 10:12:17;;;;;;;5.93;1.35;;;;;;;;;;5073411;28;20010;-81
2023/06/27 10:14:47;;;;;;;13.05;3.03;;;;;;;;;;5068909;28;20021;-80
2023/06/27 10:17:18;;;;;;;7.30;1.55;;;;;;;;;;5067415;28;20094;-79
2023/06/27 10:19:44;;;;;;;4.82;1.48;;;;;;;;;;5066080;28;20018;-81
2023/06/27 10:22:12;;;;;;;6.75;1.80;;;;;;;;;;5084727;28;20017;-80
2023/06/27 10:24:42;;;;;;;8.63;1.42;;;;;;;;;;5085378;28;20017;-79
2023/06/27 10:27:13;;;;;;;4.18;1.33;;;;;;;;;;5073289;28;20029;-82
2023/06/27 10:29:43;;;;;;;4.70;1.40;;;;;;;;;;5052450;28;20044;-84
2023/06/27 10:32:10;;;;;;;8.23;2.10;;;;;;;;;;5061740;28;20029;-81
2023/06/27 10:34:43;;;;;;;6.22;1.80;;;;;;;;;;5069516;28;20029;-84
2023/06/27 10:37:24;;;;;;;6.28;1.52;;;;;;;;;;5067096;28;20025;-80
2023/06/27 10:40:03;;;;;;;7.68;1.65;;;;;;;;;;5056192;28;20039;-81
2023/06/27 10:42:33;;;;;;;11.32;2.05;;;;;;;;;;5085082;28;20075;-80
2023/06/27 10:45:06;;;;;;;5.55;1.48;;;;;;;;;;5057307;28;20100;-83
2023/06/27 10:47:39;;;;;;;6.97;1.23;;;;;;;;;;5058982;28;20357;-83
2023/06/27 10:50:09;;;;;;;5.43;1.27;;;;;;;;;;5053279;28;20045;-88
2023/06/27 10:52:36;;;;;;;7.10;1.75;;;;;;;;;;5045493;28;20087;-84
2023/06/27 10:55:14;;;;;;;3.42;1.20;;;;;;;;;;5047055;28;20924;-85
2023/06/27 10:57:42;;;;;;;9.70;1.75;;;;;;;;;;5066398;28;20021;-85
2023/06/27 11:00:13;;;;;;;4.53;1.23;;;;;;;;;;5070073;28;20635;-83
2023/06/27 11:02:43;;;;;;;6.78;1.42;;;;;;;;;;5068926;28;20125;-82
2023/06/27 11:05:13;;;;;;;5.53;1.42;;;;;;;;;;5063920;28;20036;-81
2023/06/27 11:07:40;;;;;;;5.93;1.77;;;;;;;;;;5082495;28;20051;-79
2023/06/27 11:10:29;;;;;;;6.00;1.38;;;;;;;;;;5079078;28;20051;-83
2023/06/27 11:13:27;;;;;;;9.82;1.83;;;;;;;;;;5071504;28;20037;-82
2023/06/27 11:15:54;;;;;;;4.90;1.20;;;;;;;;;;5015338;28;20041;-82
2023/06/27 11:18:20;;;;;;;22.23;2.22;;;;;;;;;;5056755;28;20048;-83
2023/06/27 11:20:46;;;;;;;5.53;1.17;;;;;;;;;;5070576;28;20032;-80
2023/06/27 11:23:14;;;;;;;7.55;1.85;;;;;;;;;;5065619;28;20044;-83
2023/06/27 11:25:44;;;;;;;10.43;2.10;;;;;;;;;;5069444;28;20049;-82
2023/06/27 11:28:11;;;;;;;8.45;1.60;;;;;;;;;;5051594;28;20104;-84
2023/06/27 11:30:37;;;;;;;5.15;1.33;;;;;;;;;;5071385;28;20103;-85
2023/06/27 11:33:03;;;;;;;5.13;1.25;;;;;;;;;;5051994;28;20033;-84
2023/06/27 11:35:33;;;;;;;6.53;1.05;;;;;;;;;;5054807;28;20056;-84
2023/06/27 11:37:59;;;;;;;5.07;1.48;;;;;;;;;;5058835;28;20029;-84
2023/06/27 11:40:26;;;;;;;6.03;1.13;;;;;;;;;;5073024;28;20839;-86
2023/06/27 11:42:58;;;;;;;5.65;1.20;;;;;;;;;;5060557;28;20037;-83
2023/06/27 11:45:26;;;;;;;5.00;1.00;;;;;;;;;;5046911;28;21734;-84
2023/06/27 11:47:53;;;;;;;8.18;1.20;;;;;;;;;;5066002;28;20029;-85
2023/06/27 11:50:19;;;;;;;4.03;1.10;;;;;;;;;;5071981;28;20036;-85
2023/06/27 11:52:47;;;;;;;4.85;1.40;;;;;;;;;;5047928;28;20044;-85
2023/06/27 11:55:13;;;;;;;9.38;1.40;;;;;;;;;;5049702;28;20056;-85
2023/06/27 11:57:51;;;;;;;5.03;1.25;;;;;;;;;;5045740;28;20025;-87
2023/06/27 12:00:22;;;;;;;6.95;1.73;;;;;;;;;;5055316;28;20017;-85
2023/06/27 12:02:52;;;;;;;7.75;1.58;;;;;;;;;;5049844;28;20087;-84
2023/06/27 12:05:19;;;;;;;12.88;2.25;;;;;;;;;;5071827;28;20323;-86
2023/06/27 12:07:55;;;;;;;8.35;1.50;;;;;;;;;;5051714;28;20029;-85
2023/06/27 12:10:24;;;;;;;5.43;1.50;;;;;;;;;;5058631;28;20028;-83
2023/06/27 12:12:51;;;;;;;32.00;3.60;;;;;;;;;;5049741;28;20025;-86
2023/06/27 12:15:17;;;;;;;5.03;1.65;;;;;;;;;;5061412;28;20040;-82
2023/06/27 12:17:59;;;;;;;5.65;1.60;;;;;;;;;;5058854;28;20033;-82
2023/06/27 12:20:26;;;;;;;5.13;1.20;;;;;;;;;;5058062;28;20040;-82
2023/06/27 12:22:52;;;;;;;9.82;1.38;;;;;;;;;;5068523;28;20183;-85
2023/06/27 12:25:20;;;;;;;6.10;1.58;;;;;;;;;;5050823;28;20024;-82
2023/06/27 12:27:46;;;;;;;8.73;1.23;;;;;;;;;;5046215;28;20026;-84
2023/06/27 12:30:13;;;;;;;4.63;1.10;;;;;;;;;;5054432;28;20025;-85
2023/06/27 12:32:39;;;;;;;8.52;1.30;;;;;;;;;;5052551;28;20116;-84
2023/06/27 12:35:06;;;;;;;5.25;1.08;;;;;;;;;;5048976;28;20025;-83
2023/06/27 12:37:34;;;;;;;5.47;1.15;;;;;;;;;;5048431;28;20063;-85
2023/06/27 12:40:01;;;;;;;7.90;1.77;;;;;;;;;;5044751;28;20116;-84
2023/06/27 12:42:29;;;;;;;7.07;1.75;;;;;;;;;;5068440;28;20441;-85
2023/06/27 12:44:56;;;;;;;5.63;1.23;;;;;;;;;;5042517;28;20029;-84
2023/06/27 12:47:22;;;;;;;5.07;1.10;;;;;;;;;;5065791;28;20025;-83
2023/06/27 12:49:48;;;;;;;4.60;1.73;;;;;;;;;;5046527;28;20373;-82
2023/06/27 12:52:14;;;;;;;4.90;1.60;;;;;;;;;;5048334;28;20022;-84
2023/06/27 12:54:39;;;;;;;10.48;1.80;;;;;;;;;;5050035;28;20055;-85
2023/06/27 12:57:06;;;;;;;6.70;1.55;;;;;;;;;;5064565;28;20030;-84
2023/06/27 12:59:32;;;;;;;3.58;1.30;;;;;;;;;;5052189;28;20033;-86
2023/06/27 13:02:00;;;;;;;5.05;1.17;;;;;;;;;;5066143;28;20072;-84
2023/06/27 13:04:27;;;;;;;4.18;1.08;;;;;;;;;;5045574;28;20025;-84
2023/06/27 13:06:53;;;;;;;5.32;1.50;;;;;;;;;;5065097;28;20079;-84
2023/06/27 13:09:19;;;;;;;8.57;1.20;;;;;;;;;;5046195;28;20407;-85
2023/06/27 13:11:45;;;;;;;5.18;1.38;;;;;;;;;;5047554;28;21844;-83
2023/06/27 13:14:13;;;;;;;3.97;1.15;;;;;;;;;;5053198;28;20045;-80
2023/06/27 13:16:39;;;;;;;13.57;1.67;;;;;;;;;;5057571;28;20032;-80
2023/06/27 13:19:07;;;;;;;7.65;1.38;;;;;;;;;;5067612;28;20027;-79
2023/06/27 13:21:34;;;;;;;9.02;1.55;;;;;;;;;;5070807;28;20021;-78
2023/06/27 13:24:02;;;;;;;8.93;1.40;;;;;;;;;;5085189;28;20033;-79
2023/06/27 13:26:29;;;;;;;10.27;1.40;;;;;;;;;;5067355;28;20009;-79
2023/06/27 13:28:55;;;;;;;12.52;2.15;;;;;;;;;;5069194;28;20020;-78
2023/06/27 13:31:22;;;;;;;5.65;1.50;;;;;;;;;;5062181;28;20025;-82
2023/06/27 13:33:48;;;;;;;6.97;1.30;;;;;;;;;;5073152;28;20025;-83
2023/06/27 13:36:15;;;;;;;7.38;1.33;;;;;;;;;;5052079;28;20117;-84
2023/06/27 13:38:41;;;;;;;3.83;1.00;;;;;;;;;;5060842;28;20094;-84
2023/06/27 13:41:07;;;;;;;7.38;1.42;;;;;;;;;;5047643;28;20025;-82
2023/06/27 13:43:36;;;;;;;5.53;1.50;;;;;;;;;;5060319;28;20029;-84
2023/06/27 13:46:02;;;;;;;7.55;1.42;;;;;;;;;;5048555;28;20021;-84
2023/06/27 13:48:31;;;;;;;10.27;1.63;;;;;;;;;;5049558;28;20113;-82
2023/06/27 13:50:57;;;;;;;7.68;1.17;;;;;;;;;;5053557;28;20025;-85
2023/06/27 13:53:23;;;;;;;10.77;1.55;;;;;;;;;;5050598;28;20033;-83
2023/06/27 13:55:49;;;;;;;8.45;1.38;;;;;;;;;;5044518;28;20106;-84
2023/06/27 13:58:15;;;;;;;4.65;1.50;;;;;;;;;;5048501;28;21717;-85
2023/06/27 14:00:41;;;;;;;5.53;1.58;;;;;;;;;;5050593;28;20088;-84
2023/06/27 14:03:07;;;;;;;10.15;1.70;;;;;;;;;;5042621;28;20033;-84
2023/06/27 14:05:34;;;;;;;6.85;1.40;;;;;;;;;;5066099;28;20044;-84
2023/06/27 14:08:00;;;;;;;6.60;1.70;;;;;;;;;;5051713;28;20037;-87
2023/06/27 14:10:26;;;;;;;4.00;1.45;;;;;;;;;;5050579;28;20021;-85
2023/06/27 14:13:00;;;;;;;7.68;1.30;;;;;;;;;;5053146;28;20473;-84
2023/06/27 14:15:26;;;;;;;6.45;1.67;;;;;;;;;;5062234;28;20024;-85
2023/06/27 14:17:53;;;;;;;4.97;1.63;;;;;;;;;;5050282;28;20013;-84
2023/06/27 14:20:19;;;;;;;7.53;2.28;;;;;;;;;;5049050;28;20145;-84
2023/06/27 14:22:45;;;;;;;5.10;1.38;;;;;;;;;;5068883;28;20112;-85
2023/06/27 14:25:11;;;;;;;9.23;1.65;;;;;;;;;;5054707;28;20104;-84
2023/06/27 14:27:37;;;;;;;5.60;1.42;;;;;;;;;;5054944;28;20021;-83
2023/06/27 14:30:04;;;;;;;4.13;1.02;;;;;;;;;;5050393;28;20036;-83
2023/06/27 14:32:30;;;;;;;16.35;2.22;;;;;;;;;;5044530;28;20029;-83
2023/06/27 14:34:56;;;;;;;12.05;1.88;;;;;;;;;;5046354;28;20116;-83
2023/06/27 14:37:22;;;;;;;13.07;2.10;;;;;;;;;;5047046;28;20120;-84
2023/06/27 14:39:53;;;;;;;5.97;1.35;;;;;;;;;;5055602;28;20039;-83
2023/06/27 14:42:32;;;;;;;11.38;1.45;;;;;;;;;;5064085;28;20029;-84